Taipei, Taiwan

12:17 AM CST on August 25, 2016 (GMT +0800)
ITAIPEIT2 | | Change Station

Elev 30 ft 25.03 °N, 121.53 °E | Updated 47 seconds ago

Partly Cloudy
Partly Cloudy
84.6 °F
Feels Like 95 °F
N
1.0
Wind Variable Wind from SSE
Gusts 5.0 mph

Today
High -- | Low -- °F
--% Chance of Precip.
Yesterday
High -- | Low -- °F
Precip. -- in
Pressure 29.65 in
Visibility 6.2 miles
Clouds Few 2500 ft
Heat Index 95 °F
Dew Point 77 °F
Humidity 78%
Rainfall 0.00 in
Snow Depth Not available.
5:32 AM 6:19 PM
Waning Gibbous, 55% visible
METAR RCSS 241600Z 10005KT 9999 FEW025 27/23 Q1004 NOSIG RMK A2966
Pressure 29.65 in
Visibility 6.2 miles
Clouds Few 2500 ft
Heat Index 95 °F
Dew Point 77 °F
Humidity 78%
Rainfall 0.00 in
Snow Depth Not available.
5:32 AM 6:19 PM
Waning Gibbous, 55% visible
METAR RCSS 241600Z 10005KT 9999 FEW025 27/23 Q1004 NOSIG RMK A2966

10-Day Weather Forecast

No radar image for this location.
×

Almanac

Astronomy

Aug. 25, 2016 Rise Set
Actual Time
Civil Twilight
Nautical Twilight
Astronomical Twilight
Moon
Length of Visible Light
Length of Day
Tomorrow will be .
, % of the Moon is Illuminated

Today's Extremes

Country Highs Country Lows

Community

WunderPhotos

Upload Photos

1,934,648 photos uploaded!

WunderBlog® & News

Nearby

Air Quality

  Air Quality AQ Index Pollutant
Not available.

Snow Depth

Station Depth Elevation

Earthquake Activity

City Distance Mag. Time & Date
Minimum magnitude displayed is 2.5.

Coastal Water Temperatures

Place Temperature

Stations

Nearby Weather Stations

Station Location Temp. Windchill Dew Point Humidity Wind Precip. Elev Updated Type